Time;durP1;ratioP1;P1;durP2;ratioP2;P2;SDS_P1;SDS_P2;PMS_P1;PMS_P2;Temp;Humidity;BMP_temperature;BMP_pressure;BME280_temperature;BME280_humidity;BME280_pressure;Samples;Min_cycle;Max_cycle;Signal;HPM_P1;HPM_P2
2023/07/04 00:01:24;;;;;;;8.27;5.20;;;20.90;39.50;;;;;;4993333;28;20190;-55
2023/07/04 00:03:55;;;;;;;8.80;6.10;;;20.90;39.40;;;;;;4993489;28;20402;-52
2023/07/04 00:06:23;;;;;;;8.80;5.27;;;20.90;39.70;;;;;;4993488;28;20639;-55
2023/07/04 00:08:50;;;;;;;9.40;5.85;;;20.90;39.90;;;;;;4993106;28;20489;-55
2023/07/04 00:11:21;;;;;;;12.68;4.38;;;20.80;39.70;;;;;;4993186;28;20181;-52
2023/07/04 00:13:51;;;;;;;9.70;5.20;;;20.80;39.70;;;;;;4993394;28;20175;-53
2023/07/04 00:16:18;;;;;;;7.50;4.37;;;20.80;39.50;;;;;;4993575;28;20395;-55
2023/07/04 00:18:44;;;;;;;9.63;5.20;;;20.80;39.40;;;;;;4993143;28;20461;-53
2023/07/04 00:21:14;;;;;;;8.63;4.47;;;20.70;39.10;;;;;;4992954;28;20406;-52
2023/07/04 00:23:45;;;;;;;7.90;4.90;;;20.70;39.50;;;;;;4993391;28;20489;-55
2023/07/04 00:26:17;;;;;;;5.97;4.15;;;20.70;39.30;;;;;;4993199;28;20206;-53
2023/07/04 00:28:43;;;;;;;9.57;4.85;;;20.70;39.40;;;;;;4993203;28;20198;-53
2023/07/04 00:31:11;;;;;;;6.50;4.45;;;20.60;39.70;;;;;;4992895;28;20179;-55
2023/07/04 00:33:37;;;;;;;9.65;5.30;;;20.60;39.50;;;;;;4992955;28;20198;-55
2023/07/04 00:36:05;;;;;;;8.67;4.90;;;20.50;39.70;;;;;;4993056;28;20179;-52
2023/07/04 00:38:32;;;;;;;10.02;4.75;;;20.50;39.40;;;;;;4992764;28;20242;-54
2023/07/04 00:41:13;;;;;;;8.65;5.57;;;20.40;39.80;;;;;;4992642;28;20201;-54
2023/07/04 00:44:13;;;;;;;8.32;5.25;;;20.40;40.10;;;;;;4992903;28;20175;-54
2023/07/04 00:47:15;;;;;;;7.53;4.93;;;20.40;39.90;;;;;;4993168;28;20164;-53
2023/07/04 00:49:48;;;;;;;8.30;4.27;;;20.30;40.20;;;;;;4992819;28;20205;-52
2023/07/04 00:52:26;;;;;;;7.38;4.70;;;20.20;40.40;;;;;;4992685;28;20407;-54
2023/07/04 00:55:05;;;;;;;7.03;4.85;;;20.20;40.80;;;;;;4992766;28;20160;-54
2023/07/04 00:57:32;;;;;;;10.53;4.73;;;20.10;41.00;;;;;;4992587;28;20722;-54
2023/07/04 01:00:17;;;;;;;7.53;4.57;;;20.00;41.40;;;;;;4992748;28;20495;-55
2023/07/04 01:02:45;;;;;;;7.97;4.82;;;20.00;40.80;;;;;;4992728;28;20194;-55
2023/07/04 01:05:19;;;;;;;7.60;5.10;;;20.00;41.00;;;;;;4992646;28;20202;-54
2023/07/04 01:08:31;;;;;;;7.95;4.22;;;20.00;40.80;;;;;;4992533;28;21918;-54
2023/07/04 01:11:02;;;;;;;8.38;5.03;;;19.90;40.80;;;;;;4990247;28;20198;-54
2023/07/04 01:13:35;;;;;;;9.88;5.03;;;19.90;41.00;;;;;;4992430;28;20310;-54
2023/07/04 01:16:06;;;;;;;6.47;4.75;;;19.80;40.90;;;;;;4992874;28;20178;-52
2023/07/04 01:18:32;;;;;;;11.32;4.85;;;19.80;40.80;;;;;;4992525;28;20207;-54
2023/07/04 01:21:05;;;;;;;7.60;4.13;;;19.70;41.00;;;;;;4992275;28;20167;-54
2023/07/04 01:23:54;;;;;;;7.10;4.40;;;19.70;40.80;;;;;;4992509;28;20160;-54
2023/07/04 01:26:31;;;;;;;6.75;4.22;;;19.70;40.40;;;;;;4992756;28;20152;-54
2023/07/04 01:28:59;;;;;;;8.13;4.90;;;19.60;40.70;;;;;;4992351;28;20198;-54
2023/07/04 01:31:27;;;;;;;12.55;5.38;;;19.60;41.00;;;;;;4992132;28;20179;-54
2023/07/04 01:33:53;;;;;;;8.13;5.25;;;19.50;41.20;;;;;;4992418;28;20180;-53
2023/07/04 01:36:24;;;;;;;6.80;4.70;;;19.50;41.60;;;;;;4992617;28;20550;-54
2023/07/04 01:38:51;;;;;;;11.57;5.80;;;19.50;41.30;;;;;;4992140;28;20211;-54
2023/07/04 01:41:16;;;;;;;5.32;3.85;;;19.50;41.10;;;;;;4992384;28;20183;-52
2023/07/04 01:43:46;;;;;;;7.20;4.40;;;19.50;41.00;;;;;;4992405;28;20163;-54
2023/07/04 01:46:12;;;;;;;12.70;4.95;;;19.50;41.20;;;;;;4992374;28;20167;-54
2023/07/04 01:48:38;;;;;;;5.07;3.70;;;19.50;41.10;;;;;;4992089;28;20188;-54
2023/07/04 01:51:04;;;;;;;10.30;4.60;;;19.50;41.40;;;;;;4992051;28;20225;-54
2023/07/04 01:53:29;;;;;;;5.90;4.10;;;19.50;41.30;;;;;;4992244;28;20575;-54
2023/07/04 01:55:55;;;;;;;10.50;5.40;;;19.50;41.40;;;;;;4992520;28;20214;-53
2023/07/04 01:58:21;;;;;;;12.47;6.10;;;19.50;41.80;;;;;;4992369;28;20691;-52
2023/07/04 02:00:46;;;;;;;5.87;4.23;;;19.50;41.70;;;;;;4991967;28;20434;-55
2023/07/04 02:03:12;;;;;;;7.37;4.50;;;19.50;41.60;;;;;;4992025;28;20182;-53
2023/07/04 02:05:38;;;;;;;11.73;4.13;;;19.50;41.70;;;;;;4994819;28;20164;-53
2023/07/04 02:08:04;;;;;;;9.30;4.40;;;19.50;41.10;;;;;;4995444;28;20540;-55
2023/07/04 02:10:30;;;;;;;6.23;4.23;;;19.60;41.40;;;;;;4995700;28;20505;-53
2023/07/04 02:12:55;;;;;;;6.37;4.30;;;19.60;40.40;;;;;;4995606;28;20964;-55
2023/07/04 02:15:23;;;;;;;6.60;4.37;;;19.70;40.30;;;;;;4995615;28;20576;-53
2023/07/04 02:17:49;;;;;;;7.18;3.67;;;19.70;40.10;;;;;;4995246;28;20207;-55
2023/07/04 02:20:16;;;;;;;7.43;4.00;;;19.70;39.60;;;;;;4995267;28;20175;-55
2023/07/04 02:22:43;;;;;;;10.75;4.05;;;19.80;39.20;;;;;;4995338;28;20327;-52
2023/07/04 02:25:10;;;;;;;11.00;4.50;;;19.80;39.20;;;;;;4995358;28;20190;-57
2023/07/04 02:27:36;;;;;;;5.45;4.13;;;19.90;39.10;;;;;;4995395;28;20210;-52
2023/07/04 02:30:04;;;;;;;6.57;4.68;;;19.90;39.10;;;;;;4995119;28;20179;-52
2023/07/04 02:32:29;;;;;;;5.38;3.90;;;19.90;39.30;;;;;;4995097;28;20198;-54
2023/07/04 02:34:55;;;;;;;8.33;4.20;;;19.90;39.30;;;;;;4995193;28;20652;-54
2023/07/04 02:37:21;;;;;;;5.80;3.50;;;19.90;39.60;;;;;;4995157;28;20501;-54
2023/07/04 02:39:48;;;;;;;7.80;4.70;;;19.90;39.60;;;;;;4994766;28;20326;-53
2023/07/04 02:42:14;;;;;;;5.68;3.45;;;19.90;39.90;;;;;;4995096;28;20652;-53
2023/07/04 02:44:39;;;;;;;9.03;3.80;;;20.00;40.10;;;;;;4994982;28;20234;-54
2023/07/04 02:47:05;;;;;;;8.37;4.37;;;20.00;40.00;;;;;;4994868;28;20250;-53
2023/07/04 02:49:31;;;;;;;7.90;4.67;;;20.00;39.80;;;;;;4994687;28;20536;-55
2023/07/04 02:51:56;;;;;;;8.70;5.20;;;20.00;40.00;;;;;;4994989;28;20187;-52
2023/07/04 02:54:22;;;;;;;7.17;3.80;;;20.00;40.20;;;;;;4994970;28;20253;-52
2023/07/04 02:56:48;;;;;;;7.10;3.90;;;20.00;40.40;;;;;;4994833;28;20258;-55
2023/07/04 02:59:14;;;;;;;7.80;4.70;;;20.00;40.50;;;;;;4994377;28;20694;-52
2023/07/04 03:01:39;;;;;;;7.83;3.93;;;19.90;40.60;;;;;;4994765;28;20520;-53
2023/07/04 03:04:05;;;;;;;5.97;4.00;;;19.90;40.80;;;;;;4994736;28;20520;-56
2023/07/04 03:06:31;;;;;;;6.30;3.83;;;19.90;41.10;;;;;;4993343;28;20187;-54
2023/07/04 03:08:56;;;;;;;6.20;4.20;;;19.90;41.30;;;;;;4994462;28;20215;-54
2023/07/04 03:11:22;;;;;;;7.00;4.07;;;19.90;41.00;;;;;;4994458;28;20667;-56
2023/07/04 03:13:50;;;;;;;7.27;4.90;;;19.90;40.80;;;;;;4994466;28;20640;-53
2023/07/04 03:16:16;;;;;;;6.68;4.80;;;20.00;40.80;;;;;;4993251;28;20418;-52
2023/07/04 03:18:41;;;;;;;8.00;4.27;;;20.00;40.30;;;;;;4994288;28;20207;-55
2023/07/04 03:21:07;;;;;;;7.13;4.50;;;19.90;40.40;;;;;;4994124;28;20438;-55
2023/07/04 03:23:33;;;;;;;6.63;4.30;;;19.90;40.50;;;;;;4994258;28;20266;-56
2023/07/04 03:25:58;;;;;;;7.93;4.60;;;19.90;40.60;;;;;;4994243;28;20168;-56
2023/07/04 03:28:24;;;;;;;5.80;3.70;;;19.90;40.50;;;;;;4994160;28;20192;-53
2023/07/04 03:30:50;;;;;;;9.63;4.40;;;19.90;40.50;;;;;;4993804;28;20521;-53
2023/07/04 03:33:16;;;;;;;6.17;3.20;;;20.00;40.30;;;;;;4994066;28;20167;-56
2023/07/04 03:35:42;;;;;;;5.73;3.60;;;20.00;40.80;;;;;;4993989;28;20175;-53
2023/07/04 03:38:08;;;;;;;6.67;3.30;;;20.10;40.20;;;;;;4993847;28;20206;-53
2023/07/04 03:40:33;;;;;;;7.10;3.17;;;20.10;40.40;;;;;;4993685;28;20413;-54
2023/07/04 03:42:59;;;;;;;5.70;4.07;;;20.10;40.30;;;;;;4993987;28;20254;-53
2023/07/04 03:45:25;;;;;;;6.30;3.97;;;20.20;40.10;;;;;;4992552;28;20195;-53
2023/07/04 03:47:51;;;;;;;14.83;3.70;;;20.30;40.10;;;;;;4993754;28;20302;-56
2023/07/04 03:50:16;;;;;;;5.73;3.83;;;20.30;40.80;;;;;;4993783;28;20184;-56
2023/07/04 03:52:42;;;;;;;11.13;3.70;;;20.40;39.90;;;;;;4993987;28;20253;-53
2023/07/04 03:55:08;;;;;;;8.70;3.30;;;20.50;39.90;;;;;;4993742;28;20171;-57
2023/07/04 03:57:34;;;;;;;5.90;3.83;;;20.50;39.70;;;;;;4993657;28;20624;-54
2023/07/04 03:59:59;;;;;;;7.50;3.90;;;20.60;40.10;;;;;;4993275;28;20398;-54
2023/07/04 04:02:25;;;;;;;5.93;3.47;;;20.70;40.40;;;;;;4993558;28;20402;-56
2023/07/04 04:04:51;;;;;;;4.63;3.13;;;20.70;40.20;;;;;;4993473;28;20509;-55
2023/07/04 04:07:17;;;;;;;6.30;3.10;;;20.80;39.80;;;;;;4993476;28;20182;-52
2023/07/04 04:09:43;;;;;;;6.13;3.03;;;20.90;39.70;;;;;;4993042;28;20218;-52
2023/07/04 04:12:09;;;;;;;5.47;2.83;;;21.00;39.70;;;;;;4993684;28;20164;-56
2023/07/04 04:14:36;;;;;;;5.15;2.88;;;21.10;39.60;;;;;;4993281;28;20489;-53
2023/07/04 04:17:02;;;;;;;7.45;3.60;;;21.10;39.30;;;;;;4993250;28;20644;-56
2023/07/04 04:19:28;;;;;;;9.05;3.50;;;21.20;39.20;;;;;;4992851;28;20218;-55
2023/07/04 04:21:54;;;;;;;5.73;3.53;;;21.30;39.40;;;;;;4992087;28;20180;-53
2023/07/04 04:24:21;;;;;;;6.03;3.35;;;21.40;39.50;;;;;;4993166;28;20170;-55
2023/07/04 04:26:47;;;;;;;4.78;3.13;;;21.40;39.80;;;;;;4992980;28;20195;-55
2023/07/04 04:29:17;;;;;;;6.90;3.23;;;21.40;39.90;;;;;;4992737;28;20195;-54
2023/07/04 04:31:47;;;;;;;7.97;3.23;;;21.50;39.80;;;;;;4993245;28;20480;-54
2023/07/04 04:34:16;;;;;;;10.07;3.80;;;21.60;39.80;;;;;;4993007;28;20538;-53
2023/07/04 04:36:42;;;;;;;6.57;2.80;;;21.60;39.90;;;;;;4993241;28;20406;-56
2023/07/04 04:39:08;;;;;;;5.43;3.70;;;21.70;39.90;;;;;;4992691;28;20492;-56
2023/07/04 04:41:36;;;;;;;7.80;3.40;;;21.80;40.00;;;;;;4992785;28;20410;-53
2023/07/04 04:44:04;;;;;;;4.35;2.90;;;21.80;40.20;;;;;;4993157;28;20214;-56
2023/07/04 04:46:30;;;;;;;6.60;2.83;;;21.90;40.30;;;;;;4993137;28;20180;-54
2023/07/04 04:48:58;;;;;;;5.23;3.30;;;21.90;40.00;;;;;;4992638;28;20435;-52
2023/07/04 04:51:24;;;;;;;6.30;3.70;;;22.00;40.20;;;;;;4992594;28;20978;-56
2023/07/04 04:53:50;;;;;;;13.40;3.70;;;22.00;40.50;;;;;;4992787;28;20411;-54
2023/07/04 04:56:16;;;;;;;5.67;3.77;;;22.10;40.70;;;;;;4992995;28;20414;-53
2023/07/04 04:58:43;;;;;;;6.37;2.97;;;22.20;41.20;;;;;;4992567;28;20203;-55
2023/07/04 05:01:17;;;;;;;5.50;3.70;;;22.30;41.30;;;;;;4992597;28;20414;-53
2023/07/04 05:03:43;;;;;;;7.13;4.00;;;22.40;40.40;;;;;;4992592;28;20403;-55
2023/07/04 05:06:09;;;;;;;6.17;3.40;;;22.50;40.50;;;;;;4992685;28;20411;-56
2023/07/04 05:08:35;;;;;;;5.80;3.93;;;22.50;40.40;;;;;;4992408;28;20442;-54
2023/07/04 05:11:06;;;;;;;10.20;3.53;;;22.60;40.40;;;;;;4992340;28;20414;-56
2023/07/04 05:13:33;;;;;;;7.80;4.67;;;22.60;40.90;;;;;;4992659;28;20779;-54
2023/07/04 05:16:08;;;;;;;9.97;5.30;;;22.70;40.70;;;;;;4992582;28;20407;-53
2023/07/04 05:18:35;;;;;;;5.70;3.50;;;22.80;40.00;;;;;;4992437;28;20484;-55
2023/07/04 05:21:27;;;;;;;6.50;3.90;;;22.80;39.80;;;;;;4992329;28;20922;-57
2023/07/04 05:23:53;;;;;;;6.23;3.77;;;23.00;40.00;;;;;;4991431;28;20477;-56
2023/07/04 05:26:20;;;;;;;9.97;4.03;;;23.00;39.70;;;;;;4992617;28;20398;-53
2023/07/04 05:28:46;;;;;;;6.33;4.23;;;23.10;39.60;;;;;;4992361;28;20237;-53
2023/07/04 05:31:15;;;;;;;8.63;4.40;;;23.20;39.30;;;;;;4992242;28;20414;-56
2023/07/04 05:33:42;;;;;;;7.13;4.20;;;23.20;39.70;;;;;;4992270;28;20242;-53
2023/07/04 05:36:21;;;;;;;6.37;4.17;;;23.40;39.80;;;;;;4992383;28;20422;-53
2023/07/04 05:38:51;;;;;;;8.00;4.27;;;23.40;39.20;;;;;;4992516;28;20469;-53
2023/07/04 05:41:19;;;;;;;6.00;4.10;;;23.50;39.60;;;;;;4995993;28;20386;-56
2023/07/04 05:43:46;;;;;;;8.20;4.53;;;23.60;39.50;;;;;;4996339;28;20414;-53
2023/07/04 05:46:13;;;;;;;8.17;4.43;;;23.60;39.20;;;;;;4996029;28;20889;-53
2023/07/04 05:48:40;;;;;;;9.67;4.10;;;23.70;39.10;;;;;;4995948;28;20425;-57
2023/07/04 05:51:09;;;;;;;6.37;4.27;;;23.80;39.20;;;;;;4995770;28;20416;-57
2023/07/04 05:53:37;;;;;;;8.50;4.50;;;23.80;39.10;;;;;;4996102;28;20476;-53
2023/07/04 05:56:18;;;;;;;6.67;4.17;;;23.80;39.10;;;;;;4996004;28;20438;-54
2023/07/04 05:58:47;;;;;;;8.80;4.20;;;24.00;38.70;;;;;;4995978;28;20469;-53
2023/07/04 06:01:24;;;;;;;7.80;4.70;;;24.00;38.50;;;;;;4995615;28;20430;-54
2023/07/04 06:03:50;;;;;;;10.00;4.13;;;24.10;38.70;;;;;;4995807;28;20407;-55
2023/07/04 06:06:21;;;;;;;9.57;5.00;;;24.20;38.20;;;;;;4995840;28;20414;-53
2023/07/04 06:08:48;;;;;;;9.90;4.90;;;24.30;37.70;;;;;;4995432;28;20442;-53
2023/07/04 06:11:15;;;;;;;8.80;4.87;;;24.30;37.50;;;;;;4995358;28;20490;-56
2023/07/04 06:13:41;;;;;;;8.50;4.87;;;24.40;37.20;;;;;;4995607;28;20489;-53
2023/07/04 06:16:07;;;;;;;8.40;4.50;;;24.40;37.20;;;;;;4995527;28;20410;-52
2023/07/04 06:18:34;;;;;;;8.97;4.93;;;24.40;37.30;;;;;;4995582;28;20548;-55
2023/07/04 06:21:10;;;;;;;10.37;5.00;;;24.50;37.50;;;;;;4995286;28;20399;-53
2023/07/04 06:23:37;;;;;;;14.03;4.70;;;24.60;37.20;;;;;;4995578;28;20402;-53
2023/07/04 06:26:03;;;;;;;10.27;4.90;;;24.70;36.80;;;;;;4995397;28;20489;-55
2023/07/04 06:28:29;;;;;;;8.00;4.60;;;24.70;36.70;;;;;;4995284;28;20998;-53
2023/07/04 06:30:55;;;;;;;8.27;4.20;;;24.70;36.80;;;;;;4995327;28;20414;-56
2023/07/04 06:33:21;;;;;;;7.77;4.57;;;24.70;37.00;;;;;;4995206;28;20518;-55
2023/07/04 06:35:47;;;;;;;9.27;3.93;;;24.70;36.60;;;;;;4995078;28;20206;-53
2023/07/04 06:38:12;;;;;;;10.53;4.40;;;24.70;36.30;;;;;;4994919;28;20473;-56
2023/07/04 06:40:41;;;;;;;7.40;4.40;;;24.60;37.20;;;;;;4994865;28;20181;-52
2023/07/04 06:43:07;;;;;;;9.80;4.50;;;24.80;37.30;;;;;;4994959;28;20441;-53
2023/07/04 06:45:35;;;;;;;10.90;5.30;;;24.90;37.30;;;;;;4995138;28;20410;-56
2023/07/04 06:48:01;;;;;;;11.50;5.87;;;25.00;36.20;;;;;;4994876;28;20992;-55
2023/07/04 06:50:28;;;;;;;11.07;5.47;;;25.00;36.30;;;;;;4994527;28;20436;-52
2023/07/04 06:52:54;;;;;;;8.13;5.03;;;25.10;36.40;;;;;;4994763;28;20510;-56
2023/07/04 06:55:21;;;;;;;10.33;5.33;;;25.10;35.10;;;;;;4994887;28;20489;-53
2023/07/04 06:57:46;;;;;;;6.50;5.27;;;25.20;35.40;;;;;;4994885;28;20454;-55
2023/07/04 07:00:12;;;;;;;8.20;5.53;;;25.30;36.00;;;;;;4994425;28;20410;-53
2023/07/04 07:02:38;;;;;;;13.03;5.97;;;25.40;35.70;;;;;;4993696;28;20172;-53
2023/07/04 07:05:05;;;;;;;11.00;4.93;;;25.40;34.60;;;;;;4994684;28;20831;-55
2023/07/04 07:07:31;;;;;;;9.03;5.10;;;25.40;35.90;;;;;;4994241;28;20175;-56
2023/07/04 07:09:56;;;;;;;7.87;4.80;;;25.50;35.40;;;;;;4994454;28;20413;-56
2023/07/04 07:12:22;;;;;;;7.90;4.40;;;25.50;35.30;;;;;;4994432;28;20887;-55
2023/07/04 07:14:48;;;;;;;7.33;5.10;;;25.60;34.30;;;;;;4994481;28;20179;-53
2023/07/04 07:17:14;;;;;;;8.33;5.20;;;25.60;35.00;;;;;;4994341;28;20167;-56
2023/07/04 07:19:40;;;;;;;6.87;5.10;;;25.70;34.90;;;;;;4994067;28;20861;-53
2023/07/04 07:22:06;;;;;;;6.50;4.20;;;25.70;34.50;;;;;;4994495;28;20612;-54
2023/07/04 07:24:33;;;;;;;10.93;4.57;;;25.80;33.40;;;;;;4994372;28;20415;-55
2023/07/04 07:26:59;;;;;;;11.03;4.30;;;25.80;32.70;;;;;;4994284;28;20490;-52
2023/07/04 07:29:26;;;;;;;7.53;4.37;;;25.70;31.20;;;;;;4993945;28;20433;-55
2023/07/04 07:31:52;;;;;;;8.40;4.70;;;25.80;32.10;;;;;;4994220;28;20431;-56
2023/07/04 07:34:18;;;;;;;9.33;4.47;;;25.90;32.10;;;;;;4994088;28;20906;-56
2023/07/04 07:36:46;;;;;;;11.20;4.43;;;25.90;31.80;;;;;;4994295;28;20430;-53
2023/07/04 07:39:14;;;;;;;7.83;4.60;;;25.90;31.80;;;;;;4993752;28;20540;-54
2023/07/04 07:41:43;;;;;;;9.13;4.47;;;26.10;32.60;;;;;;4993937;28;20756;-55
2023/07/04 07:44:10;;;;;;;12.80;4.90;;;26.30;32.60;;;;;;4993877;28;20417;-53
2023/07/04 07:46:36;;;;;;;10.33;5.17;;;26.30;32.70;;;;;;4993836;28;20755;-53
2023/07/04 07:49:02;;;;;;;10.70;4.70;;;26.40;31.30;;;;;;4993649;28;20427;-55
2023/07/04 07:51:29;;;;;;;8.43;4.10;;;26.40;30.90;;;;;;4992414;28;20433;-55
2023/07/04 07:53:55;;;;;;;8.90;4.63;;;26.40;30.40;;;;;;4993794;28;20414;-53
2023/07/04 07:56:23;;;;;;;11.60;5.00;;;26.40;30.90;;;;;;4993799;28;20863;-55
2023/07/04 07:58:49;;;;;;;12.00;5.20;;;26.50;31.00;;;;;;4992372;28;20464;-53
2023/07/04 08:01:24;;;;;;;11.30;4.90;;;26.50;30.60;;;;;;4993351;28;20758;-52
2023/07/04 08:03:50;;;;;;;7.37;4.00;;;26.60;29.90;;;;;;4993082;28;20438;-56
2023/07/04 08:06:26;;;;;;;7.47;4.63;;;26.50;29.90;;;;;;4993521;28;20411;-55
2023/07/04 08:08:55;;;;;;;6.07;4.33;;;26.50;29.90;;;;;;4993319;28;20450;-52
2023/07/04 08:11:21;;;;;;;9.37;4.33;;;26.60;30.90;;;;;;4993225;28;20465;-55
2023/07/04 08:13:47;;;;;;;8.43;5.07;;;26.70;30.50;;;;;;4993396;28;20775;-52
2023/07/04 08:16:18;;;;;;;8.37;4.80;;;26.70;30.50;;;;;;4993511;28;20414;-53
2023/07/04 08:18:44;;;;;;;8.90;4.57;;;26.90;30.50;;;;;;4993514;28;20462;-55
2023/07/04 08:21:10;;;;;;;6.83;4.40;;;26.90;30.70;;;;;;4993176;28;20437;-55
2023/07/04 08:23:36;;;;;;;6.90;4.00;;;27.00;30.60;;;;;;4993252;28;20398;-53
2023/07/04 08:26:01;;;;;;;8.87;4.70;;;27.10;30.80;;;;;;4993193;28;20174;-52
2023/07/04 08:28:27;;;;;;;7.77;4.03;;;27.20;30.00;;;;;;4993077;28;20203;-55
2023/07/04 08:30:53;;;;;;;9.10;4.77;;;27.20;29.60;;;;;;4992808;28;20187;-53
2023/07/04 08:33:19;;;;;;;10.53;5.00;;;27.20;30.10;;;;;;4993254;28;20211;-53
2023/07/04 08:35:59;;;;;;;5.77;3.53;;;27.20;29.80;;;;;;4992980;28;20531;-56
2023/07/04 08:38:25;;;;;;;13.40;5.13;;;27.20;28.50;;;;;;4992820;28;20472;-54
2023/07/04 08:40:51;;;;;;;8.20;4.60;;;27.20;29.20;;;;;;4993008;28;20413;-56
2023/07/04 08:43:47;;;;;;;6.40;4.40;;;27.20;29.50;;;;;;4992758;28;20411;-55
2023/07/04 08:46:17;;;;;;;8.37;4.70;;;27.40;29.00;;;;;;4983268;28;20414;-52
2023/07/04 08:48:46;;;;;;;7.73;4.10;;;27.40;29.80;;;;;;4993063;28;20430;-56
2023/07/04 08:51:20;;;;;;;14.03;5.67;;;27.50;29.60;;;;;;4992603;28;20414;-55
2023/07/04 08:53:51;;;;;;;7.90;4.80;;;27.70;29.00;;;;;;4992811;28;20421;-53
2023/07/04 08:56:34;;;;;;;8.37;4.40;;;27.80;28.00;;;;;;4993052;28;20421;-53
2023/07/04 08:59:12;;;;;;;12.20;5.00;;;27.90;28.60;;;;;;4992491;28;20462;-55
2023/07/04 09:01:58;;;;;;;8.30;4.80;;;27.90;27.30;;;;;;4992686;28;20407;-55
2023/07/04 09:04:35;;;;;;;10.97;5.00;;;27.80;28.00;;;;;;4992678;28;20415;-54
2023/07/04 09:07:15;;;;;;;8.37;4.57;;;27.80;28.70;;;;;;4992660;28;21058;-52
2023/07/04 09:10:17;;;;;;;7.80;4.60;;;27.90;28.30;;;;;;4992323;28;20504;-54
2023/07/04 09:12:44;;;;;;;5.73;3.90;;;27.90;27.40;;;;;;4992631;28;20899;-53
2023/07/04 09:15:09;;;;;;;5.83;4.57;;;27.70;27.40;;;;;;4994748;28;20407;-53
2023/07/04 09:17:43;;;;;;;11.37;4.87;;;27.70;28.10;;;;;;4996474;28;20540;-55
2023/07/04 09:20:09;;;;;;;8.27;4.13;;;27.80;27.80;;;;;;4996429;28;20301;-53
2023/07/04 09:22:36;;;;;;;6.10;4.40;;;27.90;27.80;;;;;;4996623;28;20406;-55
2023/07/04 09:25:06;;;;;;;9.40;4.87;;;28.00;27.80;;;;;;4996378;28;20456;-55
2023/07/04 09:27:33;;;;;;;9.30;5.13;;;28.10;27.60;;;;;;4996691;28;20415;-53
2023/07/04 09:30:00;;;;;;;11.33;4.70;;;28.20;28.60;;;;;;4996238;28;20406;-55
2023/07/04 09:32:27;;;;;;;7.60;4.93;;;28.30;26.70;;;;;;4996337;28;20402;-53
2023/07/04 09:35:00;;;;;;;9.27;5.27;;;28.30;26.90;;;;;;4996244;28;20410;-53
2023/07/04 09:37:25;;;;;;;10.40;4.93;;;28.30;27.00;;;;;;4996098;28;20151;-54
2023/07/04 09:40:03;;;;;;;9.20;5.03;;;28.30;27.40;;;;;;4995946;28;20445;-53
2023/07/04 09:42:31;;;;;;;8.50;4.60;;;28.40;26.60;;;;;;4996376;28;20201;-56
2023/07/04 09:45:05;;;;;;;12.73;5.40;;;28.40;27.20;;;;;;4996134;28;20422;-54
2023/07/04 09:47:33;;;;;;;8.00;4.70;;;28.50;27.40;;;;;;4996152;28;20787;-56
2023/07/04 09:50:14;;;;;;;7.47;5.03;;;28.60;26.70;;;;;;4996006;28;20766;-53
2023/07/04 09:52:41;;;;;;;7.73;5.27;;;28.70;27.50;;;;;;4996043;28;20496;-56
2023/07/04 09:55:23;;;;;;;7.53;4.70;;;28.70;25.80;;;;;;4996035;28;20611;-53
2023/07/04 09:57:49;;;;;;;7.57;5.17;;;28.80;27.20;;;;;;4995846;28;20450;-55
2023/07/04 10:00:19;;;;;;;6.50;4.60;;;28.70;25.60;;;;;;4995708;28;20417;-55
2023/07/04 10:02:46;;;;;;;9.63;5.97;;;28.80;25.50;;;;;;4995759;28;20406;-53
2023/07/04 10:05:28;;;;;;;8.53;5.70;;;28.90;25.90;;;;;;4996045;28;20422;-53
2023/07/04 10:08:07;;;;;;;6.87;5.90;;;28.90;24.60;;;;;;4995717;28;20884;-56
2023/07/04 10:10:37;;;;;;;7.67;5.93;;;28.80;24.80;;;;;;4995553;28;20891;-53
2023/07/04 10:13:06;;;;;;;6.53;5.00;;;28.80;25.10;;;;;;4995864;28;20418;-55
2023/07/04 10:15:43;;;;;;;8.40;5.50;;;28.90;25.80;;;;;;4995786;28;20410;-53
2023/07/04 10:18:24;;;;;;;8.30;5.53;;;29.10;27.50;;;;;;4995475;28;20993;-56
2023/07/04 10:20:54;;;;;;;14.23;5.80;;;29.20;25.60;;;;;;4995368;28;20497;-52
2023/07/04 10:23:21;;;;;;;7.20;4.80;;;29.30;26.60;;;;;;4995333;28;20410;-53
2023/07/04 10:25:50;;;;;;;13.90;5.77;;;29.40;26.00;;;;;;4994861;28;20891;-53
2023/07/04 10:28:17;;;;;;;7.27;6.00;;;29.60;26.40;;;;;;4995242;28;20430;-53
2023/07/04 10:31:08;;;;;;;12.47;7.23;;;29.60;25.60;;;;;;4995133;28;20414;-52
2023/07/04 10:33:43;;;;;;;12.50;6.10;;;29.80;26.30;;;;;;4995197;28;20461;-55
2023/07/04 10:36:13;;;;;;;12.53;7.17;;;29.70;25.70;;;;;;4995311;28;20825;-53
2023/07/04 10:38:44;;;;;;;9.10;7.07;;;29.90;26.40;;;;;;4995080;28;20458;-54
2023/07/04 10:41:52;;;;;;;10.40;7.60;;;29.90;24.30;;;;;;4994933;28;20426;-52
2023/07/04 10:44:27;;;;;;;12.57;9.07;;;29.90;23.70;;;;;;4994753;28;21006;-53
2023/07/04 10:46:58;;;;;;;12.40;8.30;;;29.90;24.30;;;;;;4995067;28;20394;-53
2023/07/04 10:49:28;;;;;;;11.70;9.30;;;29.90;24.40;;;;;;4994789;28;20433;-55
2023/07/04 10:52:01;;;;;;;12.83;9.83;;;30.00;24.70;;;;;;4994972;28;20417;-53
2023/07/04 10:54:27;;;;;;;11.70;8.83;;;30.10;23.80;;;;;;4993702;28;20505;-56
2023/07/04 10:57:21;;;;;;;8.73;7.70;;;30.10;24.50;;;;;;4994803;28;20824;-53
2023/07/04 10:59:50;;;;;;;16.90;8.80;;;30.10;23.50;;;;;;4991403;28;20238;-56
2023/07/04 11:02:19;;;;;;;9.40;7.80;;;30.10;23.50;;;;;;4994671;28;20914;-53
2023/07/04 11:04:46;;;;;;;10.37;8.23;;;30.20;25.90;;;;;;4994633;28;20426;-54
2023/07/04 11:07:23;;;;;;;10.67;9.40;;;30.30;24.00;;;;;;4994526;28;20418;-56
2023/07/04 11:09:55;;;;;;;17.00;10.50;;;30.40;22.90;;;;;;4994273;28;20485;-54
2023/07/04 11:12:26;;;;;;;17.90;11.63;;;30.40;23.20;;;;;;4994608;28;20871;-53
2023/07/04 11:15:03;;;;;;;16.47;12.00;;;30.40;22.40;;;;;;4994618;28;20417;-56
2023/07/04 11:17:33;;;;;;;11.40;10.00;;;30.50;22.60;;;;;;4994421;28;20434;-54
2023/07/04 11:20:19;;;;;;;14.93;10.40;;;30.50;21.60;;;;;;4994503;28;20403;-56
2023/07/04 11:22:53;;;;;;;12.03;9.83;;;30.60;22.70;;;;;;4994458;28;20391;-53
2023/07/04 11:25:25;;;;;;;12.00;9.33;;;30.80;22.10;;;;;;4994292;28;20407;-53
2023/07/04 11:28:17;;;;;;;14.50;10.80;;;30.90;22.70;;;;;;4994216;28;20471;-53
2023/07/04 11:30:47;;;;;;;12.53;9.57;;;31.00;24.40;;;;;;4994028;28;20425;-56
2023/07/04 11:33:40;;;;;;;13.50;10.50;;;31.00;24.70;;;;;;4994235;28;20398;-53
2023/07/04 11:36:18;;;;;;;12.47;10.03;;;31.20;23.30;;;;;;4993998;28;20461;-54
2023/07/04 11:38:51;;;;;;;16.30;11.80;;;31.20;23.60;;;;;;4993477;28;21045;-54
2023/07/04 11:41:25;;;;;;;15.30;13.47;;;31.20;21.20;;;;;;4994003;28;20383;-55
2023/07/04 11:43:51;;;;;;;16.03;14.33;;;31.00;20.10;;;;;;4994331;28;20494;-52
2023/07/04 11:46:22;;;;;;;14.97;12.40;;;30.80;20.00;;;;;;4993984;28;20404;-53
2023/07/04 11:48:53;;;;;;;13.47;11.50;;;30.80;20.30;;;;;;4993999;28;20822;-56
2023/07/04 11:51:22;;;;;;;16.63;13.53;;;30.80;22.20;;;;;;4993914;28;20434;-53
2023/07/04 11:53:57;;;;;;;14.33;12.07;;;30.80;20.20;;;;;;4993763;28;20418;-53
2023/07/04 11:56:23;;;;;;;15.37;13.70;;;30.80;21.00;;;;;;4993742;28;20390;-56
2023/07/04 11:59:11;;;;;;;16.87;14.13;;;30.90;22.70;;;;;;4993521;28;20454;-53
2023/07/04 12:01:52;;;;;;;15.53;12.37;;;30.90;20.00;;;;;;4993484;28;20527;-53
2023/07/04 12:04:44;;;;;;;14.13;12.50;;;30.80;19.90;;;;;;4993615;28;20444;-53
2023/07/04 12:07:18;;;;;;;16.03;14.23;;;30.80;20.00;;;;;;4993473;28;20399;-54
2023/07/04 12:09:46;;;;;;;17.20;15.37;;;30.70;21.00;;;;;;4993068;28;21039;-55
2023/07/04 12:12:22;;;;;;;17.73;15.63;;;30.40;20.10;;;;;;4993433;28;20421;-52
2023/07/04 12:14:51;;;;;;;18.57;15.80;;;30.30;21.40;;;;;;4993689;28;20398;-55
2023/07/04 12:17:18;;;;;;;19.13;15.47;;;30.40;20.00;;;;;;4993350;28;20419;-52
2023/07/04 12:19:44;;;;;;;17.77;15.80;;;30.40;20.70;;;;;;4993197;28;20454;-53
2023/07/04 12:22:15;;;;;;;17.53;14.93;;;30.70;20.00;;;;;;4993328;28;20631;-55
2023/07/04 12:24:41;;;;;;;16.73;14.30;;;30.80;20.90;;;;;;4993464;28;20407;-53
2023/07/04 12:27:07;;;;;;;17.23;15.33;;;31.00;22.00;;;;;;4993106;28;20752;-53
2023/07/04 12:29:45;;;;;;;20.10;16.17;;;31.20;22.90;;;;;;4993116;28;20195;-56
2023/07/04 12:32:20;;;;;;;20.30;14.83;;;31.40;21.40;;;;;;4993183;28;20207;-52
2023/07/04 12:34:45;;;;;;;20.27;16.40;;;31.30;19.80;;;;;;4993042;28;20384;-53
2023/07/04 12:37:16;;;;;;;15.77;14.17;;;31.20;21.20;;;;;;4993035;28;20419;-56
2023/07/04 12:39:47;;;;;;;19.00;16.07;;;31.30;20.40;;;;;;4992913;28;20283;-53
2023/07/04 12:42:31;;;;;;;21.23;16.27;;;31.30;20.00;;;;;;4992907;28;20443;-53
2023/07/04 12:44:57;;;;;;;17.30;15.13;;;31.30;20.70;;;;;;4993129;28;20399;-55
2023/07/04 12:47:32;;;;;;;20.83;15.40;;;31.10;21.50;;;;;;4993088;28;20839;-56
2023/07/04 12:50:00;;;;;;;17.40;15.60;;;30.90;20.00;;;;;;4992494;28;20402;-53
2023/07/04 12:52:31;;;;;;;22.47;15.93;;;30.80;20.90;;;;;;4992900;28;20779;-53
2023/07/04 12:54:59;;;;;;;18.30;14.30;;;30.60;21.00;;;;;;4992843;28;20751;-55
2023/07/04 12:57:29;;;;;;;21.83;15.80;;;30.60;21.30;;;;;;4992656;28;20410;-54